Portada
METAR-TAF:

METAR-TAF

Aeropuertos :

Atar, Mauritania

Aeropuerto Internacional de Atar

latitud: 20-30-24N, longitud: 013-02-35W, altitud: 231 m

Observación

El informe se hizo hace 13 horas y 54 minutos, a las 12:00 UTC
Viento 12 kt del suroeste, variando entre oeste y oeste-suroeste
Temperatura 33°C
Humedad 53%
Presión 1012 hPa
Visibilidad: 3000 m
Polvo extendido,

METAR: GQPA 221200Z 22012KT 280V250 3000 DU NSC 33/22 Q1012

Hora: 01:54 (01:54 UTC)


TAF: falta

Observaciones y pronósticos meteorológicos de más de 4000 aeropuertos (mensajes METAR y TAF).

Los puntos amarillos y rojos representan las estaciones disponibles.

Ponga el ratón en el punto deseado para ver el nombre de la estación.

Haga clic para ver las observaciones y los pronósticos meteorológicos.

Para cambiar el mapa : haga clic en los botones verdes con una cruz de color negro para hacer un zoom, en el botón verde con un guión para alejar o en las flechas verdes para mapas adyacentes.


METAR-TAF: